createdAt,value
2023-05-18T00:02:01.880Z,5.37
2023-05-18T00:05:05.390Z,4.80
2023-05-18T00:08:09.788Z,5.65
2023-05-18T00:11:13.826Z,4.90
2023-05-18T00:14:16.319Z,5.33
2023-05-18T00:17:20.229Z,5.67
2023-05-18T00:20:26.537Z,5.53
2023-05-18T00:23:30.006Z,5.60
2023-05-18T00:26:34.126Z,5.38
2023-05-18T00:29:36.765Z,5.97
2023-05-18T00:32:39.357Z,5.47
2023-05-18T00:35:41.979Z,5.20
2023-05-18T00:38:44.571Z,5.10
2023-05-18T00:41:48.581Z,5.93
2023-05-18T00:44:51.137Z,5.03
2023-05-18T00:47:53.723Z,5.87
2023-05-18T00:50:56.354Z,5.23
2023-05-18T00:54:01.064Z,6.27
2023-05-18T00:57:05.750Z,5.17
2023-05-18T01:00:10.894Z,4.77
2023-05-18T01:03:15.274Z,5.17
2023-05-18T01:06:18.438Z,4.83
2023-05-18T01:09:21.100Z,4.25
2023-05-18T01:12:28.325Z,5.27
2023-05-18T01:15:33.969Z,5.50
2023-05-18T01:18:43.565Z,5.60
2023-05-18T01:21:57.588Z,5.30
2023-05-18T01:28:10.320Z,4.97
2023-05-18T01:31:13.625Z,5.53
2023-05-18T01:34:16.344Z,5.63
2023-05-18T01:37:18.920Z,5.17
2023-05-18T01:40:21.591Z,5.57
2023-05-18T01:43:29.991Z,6.33
2023-05-18T01:46:37.009Z,5.90
2023-05-18T01:49:44.096Z,5.47
2023-05-18T01:52:49.533Z,6.73
2023-05-18T01:55:53.924Z,4.80
2023-05-18T01:58:58.823Z,6.30
2023-05-18T02:02:02.046Z,5.73
2023-05-18T02:05:05.590Z,5.75
2023-05-18T02:08:08.198Z,5.30
2023-05-18T02:11:11.190Z,5.50
2023-05-18T02:14:15.165Z,5.85
2023-05-18T02:17:17.907Z,5.73
2023-05-18T02:20:20.705Z,5.57
2023-05-18T02:23:23.355Z,5.25
2023-05-18T02:26:26.377Z,5.87
2023-05-18T02:29:30.506Z,5.78
2023-05-18T02:32:38.195Z,5.67
2023-05-18T02:35:41.253Z,5.30
2023-05-18T02:38:45.064Z,5.65
2023-05-18T02:44:52.115Z,5.40
2023-05-18T02:47:54.982Z,5.87
2023-05-18T02:50:58.775Z,5.93
2023-05-18T02:57:04.186Z,5.20
2023-05-18T03:00:11.696Z,5.10
2023-05-18T03:03:16.372Z,5.83
2023-05-18T03:06:23.379Z,5.60
2023-05-18T03:09:26.554Z,5.10
2023-05-18T03:12:29.280Z,6.22
2023-05-18T03:15:33.392Z,5.83
2023-05-18T03:18:36.061Z,5.37
2023-05-18T03:21:38.874Z,5.57
2023-05-18T03:24:41.557Z,5.53
2023-05-18T03:27:44.264Z,5.53
2023-05-18T03:30:48.214Z,4.97
2023-05-18T03:33:50.899Z,5.20
2023-05-18T03:36:54.814Z,5.27
2023-05-18T03:40:00.936Z,4.97
2023-05-18T03:43:03.613Z,5.43
2023-05-18T03:46:07.781Z,5.30
2023-05-18T03:49:10.322Z,5.00
2023-05-18T03:52:15.339Z,4.80
2023-05-18T03:55:21.321Z,5.73
2023-05-18T03:58:23.961Z,4.73
2023-05-18T04:01:30.206Z,5.47
2023-05-18T04:04:33.296Z,5.57
2023-05-18T04:07:44.084Z,5.95
2023-05-18T04:10:47.382Z,4.33
2023-05-18T04:13:50.860Z,4.78
2023-05-18T04:16:55.007Z,5.00
2023-05-18T04:19:57.819Z,4.77
2023-05-18T04:23:00.461Z,5.17
2023-05-18T04:26:03.598Z,5.20
2023-05-18T04:29:07.735Z,5.05
2023-05-18T04:32:11.746Z,5.10
2023-05-18T04:35:14.710Z,5.30
2023-05-18T04:38:17.380Z,4.72
2023-05-18T04:41:22.200Z,4.73
2023-05-18T04:44:25.857Z,5.07
2023-05-18T04:47:30.157Z,5.00
2023-05-18T04:50:32.880Z,5.20
2023-05-18T04:53:38.693Z,5.00
2023-05-18T04:56:41.287Z,4.83
2023-05-18T04:59:47.255Z,4.80
2023-05-18T05:02:51.441Z,4.83
2023-05-18T05:05:54.469Z,4.83
2023-05-18T05:08:58.196Z,5.07
2023-05-18T05:15:03.779Z,4.37
2023-05-18T05:18:08.057Z,3.42
2023-05-18T05:21:11.047Z,3.80
2023-05-18T05:24:13.672Z,3.60
2023-05-18T05:27:16.285Z,3.80
2023-05-18T05:30:18.914Z,4.57
2023-05-18T05:33:22.869Z,3.30
2023-05-18T05:36:25.571Z,4.00
2023-05-18T05:39:28.112Z,3.65
2023-05-18T05:42:30.805Z,3.80
2023-05-18T05:45:33.840Z,3.80
2023-05-18T05:48:38.142Z,3.58
2023-05-18T05:51:40.888Z,3.77
2023-05-18T05:54:43.521Z,3.85
2023-05-18T05:57:46.037Z,3.40
2023-05-18T06:00:48.700Z,3.37
2023-05-18T06:03:52.691Z,3.53
2023-05-18T06:06:55.391Z,4.03
2023-05-18T06:09:58.041Z,3.97
2023-05-18T06:13:00.678Z,3.37
2023-05-18T06:16:03.494Z,3.10
2023-05-18T06:19:07.518Z,3.00
2023-05-18T06:22:10.173Z,3.57
2023-05-18T06:25:12.724Z,4.27
2023-05-18T06:28:15.364Z,3.67
2023-05-18T06:31:18.988Z,3.87
2023-05-18T06:34:23.054Z,3.90
2023-05-18T06:37:25.684Z,3.57
2023-05-18T06:40:28.738Z,2.97
2023-05-18T06:43:31.399Z,3.45
2023-05-18T06:46:34.058Z,2.30
2023-05-18T06:49:38.272Z,2.92
2023-05-18T06:52:40.870Z,2.57
2023-05-18T06:55:43.571Z,2.77
2023-05-18T06:58:46.426Z,3.72
2023-05-18T07:01:50.119Z,3.30
2023-05-18T07:04:54.361Z,2.87
2023-05-18T07:07:57.395Z,3.28
2023-05-18T07:11:02.431Z,3.45
2023-05-18T07:14:06.038Z,2.63
2023-05-18T07:17:08.797Z,2.27
2023-05-18T07:20:13.320Z,2.47
2023-05-18T07:23:16.028Z,2.30
2023-05-18T07:26:18.582Z,3.00
2023-05-18T07:29:21.254Z,2.60
2023-05-18T07:32:23.991Z,2.50
2023-05-18T07:35:27.856Z,2.67
2023-05-18T07:38:30.546Z,2.57
2023-05-18T07:41:33.245Z,3.13
2023-05-18T07:44:35.890Z,2.50
2023-05-18T07:47:38.531Z,2.90
2023-05-18T07:50:42.840Z,2.70
2023-05-18T07:53:45.971Z,2.37
2023-05-18T07:56:48.690Z,3.13
2023-05-18T07:59:51.416Z,2.15
2023-05-18T08:02:54.479Z,2.60
2023-05-18T08:05:58.554Z,2.92
2023-05-18T08:09:01.265Z,3.07
2023-05-18T08:12:03.929Z,2.38
2023-05-18T08:15:07.924Z,2.63
2023-05-18T08:18:10.584Z,2.47
2023-05-18T08:21:14.606Z,2.72
2023-05-18T08:24:17.158Z,2.80
2023-05-18T08:27:20.021Z,2.90
2023-05-18T08:30:22.788Z,2.60
2023-05-18T08:33:25.828Z,2.50
2023-05-18T08:36:30.501Z,2.38
2023-05-18T08:39:33.083Z,2.30
2023-05-18T08:42:49.353Z,2.15
2023-05-18T08:45:56.460Z,1.93
2023-05-18T08:48:59.921Z,2.60
2023-05-18T08:55:10.937Z,2.40
2023-05-18T08:58:15.328Z,2.63
2023-05-18T09:01:18.382Z,2.50
2023-05-18T09:04:21.513Z,2.88
2023-05-18T09:07:27.506Z,2.70
2023-05-18T09:10:30.209Z,2.70
2023-05-18T09:13:32.786Z,2.88
2023-05-18T09:16:35.715Z,3.08
2023-05-18T09:19:38.360Z,2.25
2023-05-18T09:22:42.335Z,2.25
2023-05-18T09:25:46.208Z,2.30
2023-05-18T09:28:53.191Z,2.47
2023-05-18T09:31:56.026Z,3.33
2023-05-18T09:35:05.552Z,2.78
2023-05-18T09:38:09.924Z,2.77
2023-05-18T09:41:16.387Z,2.23
2023-05-18T09:44:19.005Z,2.27
2023-05-18T09:47:21.639Z,2.22
2023-05-18T09:50:26.507Z,2.72
2023-05-18T09:53:30.481Z,2.50
2023-05-18T09:56:36.285Z,3.47
2023-05-18T09:59:38.830Z,3.23
2023-05-18T10:02:42.395Z,1.67
2023-05-18T10:05:45.017Z,2.33
2023-05-18T10:08:48.988Z,2.60
2023-05-18T10:11:51.602Z,2.10
2023-05-18T10:14:54.282Z,2.53
2023-05-18T10:17:58.074Z,1.90
2023-05-18T10:21:02.989Z,2.10
2023-05-18T10:24:08.813Z,1.97
2023-05-18T10:27:12.137Z,2.50
2023-05-18T10:33:28.638Z,2.70
2023-05-18T10:36:34.324Z,2.20
2023-05-18T10:39:38.526Z,1.80
2023-05-18T10:42:41.269Z,2.20
2023-05-18T10:45:45.920Z,2.35
2023-05-18T10:48:49.434Z,2.67
2023-05-18T10:51:54.377Z,2.30
2023-05-18T10:54:59.568Z,1.87
2023-05-18T10:58:04.929Z,2.03
2023-05-18T11:01:10.272Z,2.87
2023-05-18T11:04:13.030Z,2.20
2023-05-18T11:07:16.245Z,2.30
2023-05-18T11:10:20.122Z,2.10
2023-05-18T11:13:29.554Z,2.10
2023-05-18T11:16:35.427Z,2.00
2023-05-18T11:19:38.111Z,2.67
2023-05-18T11:22:46.065Z,1.98
2023-05-18T11:25:51.052Z,2.40
2023-05-18T11:28:53.923Z,2.53
2023-05-18T11:31:56.761Z,1.60
2023-05-18T11:34:59.943Z,2.08
2023-05-18T11:38:08.473Z,1.50
2023-05-18T11:41:29.167Z,2.77
2023-05-18T11:44:32.705Z,2.20
2023-05-18T11:47:36.610Z,1.90
2023-05-18T11:50:39.355Z,1.87
2023-05-18T11:53:42.275Z,1.70
2023-05-18T11:56:46.262Z,2.08
2023-05-18T11:59:51.115Z,2.07
2023-05-18T12:02:56.717Z,1.93
2023-05-18T12:06:01.463Z,1.90
2023-05-18T12:09:04.364Z,2.20
2023-05-18T12:12:10.938Z,2.40
2023-05-18T12:15:15.748Z,2.13
2023-05-18T12:18:20.028Z,1.80
2023-05-18T12:21:23.329Z,1.73
2023-05-18T12:27:30.112Z,1.67
2023-05-18T12:30:36.297Z,1.77
2023-05-18T12:33:39.420Z,2.20
2023-05-18T12:36:43.653Z,1.73
2023-05-18T12:39:46.232Z,2.03
2023-05-18T12:42:54.478Z,1.80
2023-05-18T12:45:59.642Z,1.90
2023-05-18T12:49:05.005Z,1.80
2023-05-18T12:52:12.493Z,1.63
2023-05-18T12:55:21.534Z,2.10
2023-05-18T12:58:25.457Z,2.07
2023-05-18T13:01:28.200Z,1.90
2023-05-18T13:04:35.503Z,1.98
2023-05-18T13:07:40.083Z,1.73
2023-05-18T13:10:44.870Z,1.80
2023-05-18T13:14:10.786Z,1.53
2023-05-18T13:17:23.110Z,2.00
2023-05-18T13:20:35.744Z,2.17
2023-05-18T13:23:39.442Z,2.35
2023-05-18T13:26:42.370Z,1.83
2023-05-18T13:32:48.897Z,1.90
2023-05-18T13:35:51.751Z,1.45
2023-05-18T13:38:54.493Z,1.73
2023-05-18T13:41:57.008Z,2.13
2023-05-18T13:45:01.023Z,2.22
2023-05-18T13:48:09.592Z,1.92
2023-05-18T13:51:13.221Z,1.10
2023-05-18T13:57:18.325Z,1.70
2023-05-18T14:00:22.689Z,1.42
2023-05-18T14:03:25.745Z,1.97
2023-05-18T14:06:28.798Z,1.67
2023-05-18T14:12:36.151Z,2.00
2023-05-18T14:15:40.155Z,1.90
2023-05-18T14:18:42.925Z,1.58
2023-05-18T14:21:45.835Z,1.85
2023-05-18T14:24:48.628Z,2.03
2023-05-18T14:27:51.449Z,1.83
2023-05-18T14:30:55.478Z,2.13
2023-05-18T14:33:58.362Z,1.75
2023-05-18T14:37:03.838Z,2.40
2023-05-18T14:40:08.325Z,1.95
2023-05-18T14:43:11.056Z,2.00
2023-05-18T14:46:15.241Z,1.73
2023-05-18T14:49:17.871Z,1.98
2023-05-18T14:52:20.590Z,2.20
2023-05-18T14:58:26.107Z,1.92
2023-05-18T15:01:30.165Z,1.40
2023-05-18T15:04:33.252Z,1.58
2023-05-18T15:07:35.969Z,1.65
2023-05-18T15:10:38.687Z,2.10
2023-05-18T15:13:42.441Z,2.08
2023-05-18T15:16:46.779Z,1.38
2023-05-18T15:19:49.719Z,1.80
2023-05-18T15:25:55.145Z,1.20
2023-05-18T15:28:57.800Z,1.90
2023-05-18T15:32:01.823Z,2.00
2023-05-18T15:35:05.202Z,2.50
2023-05-18T15:38:07.879Z,1.60
2023-05-18T15:41:10.732Z,1.58
2023-05-18T15:44:13.305Z,2.40
2023-05-18T15:47:17.305Z,1.70
2023-05-18T15:50:19.893Z,1.47
2023-05-18T15:53:22.463Z,2.45
2023-05-18T15:56:25.162Z,1.92
2023-05-18T15:59:28.301Z,1.90
2023-05-18T16:05:35.223Z,1.57
2023-05-18T16:08:37.846Z,1.77
2023-05-18T16:11:40.401Z,1.67
2023-05-18T16:14:42.930Z,2.10
2023-05-18T16:17:47.106Z,1.98
2023-05-18T16:20:49.750Z,1.57
2023-05-18T16:23:52.558Z,1.70
2023-05-18T16:26:55.408Z,1.48
2023-05-18T16:29:58.378Z,2.10
2023-05-18T16:33:02.476Z,1.70
2023-05-18T16:36:06.225Z,2.10
2023-05-18T16:39:08.905Z,1.70
2023-05-18T16:42:12.395Z,1.90
2023-05-18T16:45:15.272Z,2.37
2023-05-18T16:48:19.334Z,1.95
2023-05-18T16:51:21.934Z,2.30
2023-05-18T16:54:25.093Z,1.80
2023-05-18T16:57:27.822Z,2.20
2023-05-18T17:00:31.127Z,1.40
2023-05-18T17:03:35.718Z,1.67
2023-05-18T17:06:38.914Z,1.50
2023-05-18T17:12:45.005Z,2.08
2023-05-18T17:15:47.720Z,2.17
2023-05-18T17:18:53.388Z,1.95
2023-05-18T17:21:56.413Z,1.83
2023-05-18T17:24:59.368Z,2.63
2023-05-18T17:28:02.036Z,1.42
2023-05-18T17:31:07.498Z,2.47
2023-05-18T17:34:11.880Z,1.97
2023-05-18T17:37:14.514Z,2.00
2023-05-18T17:40:17.146Z,2.50
2023-05-18T17:43:19.919Z,2.28
2023-05-18T17:46:22.519Z,2.33
2023-05-18T17:49:27.223Z,2.75
2023-05-18T17:52:29.858Z,2.30
2023-05-18T17:55:32.751Z,2.83
2023-05-18T17:58:38.822Z,3.15
2023-05-18T18:01:41.804Z,3.00
2023-05-18T18:04:45.755Z,3.03
2023-05-18T18:07:48.533Z,2.67
2023-05-18T18:10:51.390Z,3.03
2023-05-18T18:13:54.701Z,2.15
2023-05-18T18:20:04.142Z,3.07
2023-05-18T18:23:07.391Z,3.87
2023-05-18T18:26:10.047Z,4.28
2023-05-18T18:29:12.643Z,5.68
2023-05-18T18:32:15.200Z,5.82
2023-05-18T18:35:19.452Z,4.57
2023-05-18T18:38:22.440Z,3.60
2023-05-18T18:41:25.895Z,3.03
2023-05-18T18:44:28.731Z,3.17
2023-05-18T18:47:31.445Z,3.28
2023-05-18T18:50:35.470Z,2.58
2023-05-18T18:53:38.043Z,2.30
2023-05-18T18:56:40.766Z,2.38
2023-05-18T18:59:43.410Z,3.55
2023-05-18T19:02:46.012Z,2.25
2023-05-18T19:05:50.362Z,2.47
2023-05-18T19:08:53.364Z,2.60
2023-05-18T19:11:55.965Z,2.05
2023-05-18T19:14:58.493Z,2.40
2023-05-18T19:18:01.196Z,2.20
2023-05-18T19:21:05.593Z,1.70
2023-05-18T19:24:08.802Z,2.53
2023-05-18T19:27:11.376Z,2.53
2023-05-18T19:30:16.497Z,2.50
2023-05-18T19:33:19.092Z,2.30
2023-05-18T19:36:22.951Z,2.22
2023-05-18T19:39:25.558Z,2.67
2023-05-18T19:42:28.302Z,4.13
2023-05-18T19:45:31.158Z,3.90
2023-05-18T19:48:34.104Z,2.00
2023-05-18T19:51:38.768Z,2.40
2023-05-18T19:54:41.453Z,2.37
2023-05-18T19:57:44.022Z,3.00
2023-05-18T20:00:46.816Z,5.20
2023-05-18T20:03:49.783Z,4.43
2023-05-18T20:06:53.979Z,3.35
2023-05-18T20:09:56.500Z,3.73
2023-05-18T20:12:59.059Z,3.93
2023-05-18T20:16:03.466Z,4.78
2023-05-18T20:19:06.606Z,3.77
2023-05-18T20:22:10.978Z,2.90
2023-05-18T20:25:13.630Z,3.27
2023-05-18T20:28:16.304Z,3.15
2023-05-18T20:31:18.897Z,3.33
2023-05-18T20:34:21.482Z,2.50
2023-05-18T20:37:26.182Z,3.60
2023-05-18T20:40:30.783Z,2.70
2023-05-18T20:43:33.712Z,3.27
2023-05-18T20:46:37.665Z,3.38
2023-05-18T20:49:41.255Z,3.03
2023-05-18T20:52:46.141Z,3.63
2023-05-18T20:55:49.809Z,3.10
2023-05-18T20:58:52.395Z,3.10
2023-05-18T21:01:56.383Z,3.13
2023-05-18T21:04:59.118Z,2.57
2023-05-18T21:08:03.459Z,2.93
2023-05-18T21:11:06.022Z,2.97
2023-05-18T21:14:08.789Z,3.00
2023-05-18T21:17:11.407Z,3.78
2023-05-18T21:20:14.026Z,2.65
2023-05-18T21:23:18.058Z,2.63
2023-05-18T21:26:20.630Z,2.00
2023-05-18T21:29:23.214Z,2.60
2023-05-18T21:32:25.852Z,2.47
2023-05-18T21:35:28.594Z,4.00
2023-05-18T21:38:32.819Z,2.83
2023-05-18T21:41:39.078Z,3.10
2023-05-18T21:44:41.642Z,2.73
2023-05-18T21:47:44.336Z,3.60
2023-05-18T21:50:47.146Z,2.90
2023-05-18T21:53:51.702Z,3.78
2023-05-18T21:56:54.322Z,3.30
2023-05-18T21:59:56.844Z,2.25
2023-05-18T22:02:59.628Z,3.60
2023-05-18T22:06:02.181Z,2.92
2023-05-18T22:09:06.835Z,2.78
2023-05-18T22:12:09.686Z,2.27
2023-05-18T22:15:12.765Z,3.17
2023-05-18T22:18:17.381Z,2.50
2023-05-18T22:21:20.149Z,2.63
2023-05-18T22:24:24.118Z,2.83
2023-05-18T22:27:26.789Z,2.53
2023-05-18T22:30:29.565Z,2.75
2023-05-18T22:33:32.326Z,2.10
2023-05-18T22:36:35.150Z,2.87
2023-05-18T22:39:39.009Z,2.88
2023-05-18T22:42:41.927Z,2.40
2023-05-18T22:45:44.479Z,2.85
2023-05-18T22:48:48.054Z,2.23
2023-05-18T22:51:52.520Z,2.20
2023-05-18T22:54:56.582Z,2.57
2023-05-18T22:57:59.433Z,2.37
2023-05-18T23:01:02.058Z,2.10
2023-05-18T23:04:04.601Z,1.70
2023-05-18T23:07:07.325Z,2.30
2023-05-18T23:10:12.775Z,3.42
2023-05-18T23:13:16.953Z,2.10
2023-05-18T23:16:20.535Z,2.40
2023-05-18T23:19:23.835Z,1.93
2023-05-18T23:22:26.691Z,2.10
2023-05-18T23:25:30.693Z,2.33
2023-05-18T23:28:33.263Z,2.47
2023-05-18T23:31:35.948Z,2.05
2023-05-18T23:34:39.082Z,1.70
2023-05-18T23:37:42.943Z,2.63
2023-05-18T23:40:48.221Z,1.60
2023-05-18T23:43:53.008Z,1.93
2023-05-18T23:46:56.426Z,1.63
2023-05-18T23:49:59.617Z,1.90
2023-05-18T23:53:04.432Z,2.35
2023-05-18T23:56:09.173Z,2.03
2023-05-18T23:59:12.791Z,2.20
